Baltimore, Maryland
Traffic Map
Current Weather Conditions
Baltimore, Maryland
Overcast
Overcast
62°
Feels Like: 62°
Wind Chill: 62° Ceiling: 1000
Heat Index: 62° Visibility: 10mi
Dew Point: 62° Wind: 6mph
Humidity: 100% Direction: 60° (ENE)
Pressure: 29.81in Gusts: 0mph
Raw Report DataKBWI 290615Z 06005KT 10SM OVC010 17/17 A2981 RMK AO2 T01670167
Traffic Incident Summary
Active as of:
Severity:
Category:
InformationThere was an issue retrieving the traffic information for this location. Please try a different location or try again shortly.
Advertisements
Track Severe Weather on mobile